Latest Weather Observations for Busselton Jetty

IDW60801

Issued at 4:03 am WST Thursday 29 January 2015 (issued every 30 minutes, with the page automatically refreshed every 10 minutes)

About weather observations | Map of weather stations | Latest weather observations for WA | Other Formats
Station Details ID: 009937 Name: BUSSELTON JETTY Lat: -33.63 Lon: 115.34 Height: 3.0 m
Data from the previous 72 hours. | See also: Recent months for locations in Western Australia
Date/Time
WST
Temp
°C
App
Temp
°C
Dew
Point
Rel
Hum
%
Delta-T
°C
Wind Press
QNH
hPa
Press
MSL
hPa
Rain
since 9 am
mm
Dir
 
Spd
km/h
Gust
km/h
Spd
kts
Gust
kts
29/04:00am - - - - - SW 26 30 14 16 - - -
29/03:30am - - - - - SSW 22 26 12 14 - - -
29/03:00am - - - - - SSW 24 32 13 17 - - -
29/02:30am - - - - - SSW 26 32 14 17 - - -
29/02:00am - - - - - SSW 30 35 16 19 - - -
29/01:30am - - - - - SSW 32 37 17 20 - - -
29/01:00am - - - - - SSW 30 37 16 20 - - -
29/12:30am - - - - - SW 24 28 13 15 - - -
29/12:00am - - - - - SW 24 28 13 15 - - -
 
Date/Time
WST
Temp
°C
App
Temp
°C
Dew
Point
Rel
Hum
%
Delta-T
°C
Wind Press
QNH
hPa
Press
MSL
hPa
Rain
since 9 am
mm
Dir
 
Spd
km/h
Gust
km/h
Spd
kts
Gust
kts
28/11:30pm - - - - - SW 19 20 10 11 - - -
28/11:00pm - - - - - SW 19 22 10 12 - - -
28/10:30pm - - - - - SW 13 17 7 9 - - -
28/10:00pm - - - - - ESE 11 13 6 7 - - -
28/09:30pm - - - - - SE 11 11 6 6 - - -
28/09:00pm - - - - - SW 9 13 5 7 - - -
28/08:30pm - - - - - WNW 9 11 5 6 - - -
28/08:00pm - - - - - NW 9 11 5 6 - - -
28/07:30pm - - - - - W 13 15 7 8 - - -
28/07:00pm - - - - - WNW 15 20 8 11 - - -
28/06:30pm - - - - - N 17 19 9 10 - - -
28/06:00pm - - - - - N 15 17 8 9 - - -
28/05:30pm - - - - - NNE 13 15 7 8 - - -
28/05:00pm - - - - - NE 13 15 7 8 - - -
28/04:30pm - - - - - NE 11 13 6 7 - - -
28/04:00pm - - - - - NNW 17 17 9 9 - - -
28/03:30pm - - - - - NNW 20 26 11 14 - - -
28/03:00pm - - - - - NNW 15 20 8 11 - - -
28/02:30pm - - - - - N 11 13 6 7 - - -
28/02:00pm - - - - - NE 11 13 6 7 - - -
28/01:30pm - - - - - NE 9 13 5 7 - - -
28/01:00pm - - - - - NNE 9 11 5 6 - - -
28/12:30pm - - - - - NNE 11 13 6 7 - - -
28/12:00pm - - - - - NNE 11 15 6 8 - - -
28/11:30am - - - - - NNE 15 19 8 10 - - -
28/11:00am - - - - - NNE 15 20 8 11 - - -
28/10:30am - - - - - NE 9 9 5 5 - - -
28/10:00am - - - - - NE 6 7 3 4 - - -
28/09:30am - - - - - NE 9 9 5 5 - - -
28/09:00am - - - - - ESE 11 11 6 6 - - -
28/08:30am - - - - - ESE 17 19 9 10 - - -
28/08:00am - - - - - SE 15 17 8 9 - - -
28/07:30am - - - - - SE 17 20 9 11 - - -
28/07:00am - - - - - SE 15 17 8 9 - - -
28/06:30am - - - - - SE 15 17 8 9 - - -
28/06:00am - - - - - SSE 15 17 8 9 - - -
28/05:30am - - - - - SSE 13 17 7 9 - - -
28/05:00am - - - - - SSE 15 19 8 10 - - -
28/04:30am - - - - - SSE 13 15 7 8 - - -
28/04:00am - - - - - SSE 20 24 11 13 - - -
28/03:30am - - - - - SE 19 22 10 12 - - -
28/03:00am - - - - - SSE 24 28 13 15 - - -
28/02:30am - - - - - SE 13 19 7 10 - - -
28/02:00am - - - - - SE 22 26 12 14 - - -
28/01:30am - - - - - SE 26 30 14 16 - - -
28/01:00am - - - - - SE 20 26 11 14 - - -
28/12:30am - - - - - SE 22 28 12 15 - - -
28/12:00am - - - - - SE 22 28 12 15 - - -
 
Date/Time
WST
Temp
°C
App
Temp
°C
Dew
Point
Rel
Hum
%
Delta-T
°C
Wind Press
QNH
hPa
Press
MSL
hPa
Rain
since 9 am
mm
Dir
 
Spd
km/h
Gust
km/h
Spd
kts
Gust
kts
27/11:30pm - - - - - SSE 24 28 13 15 - - -
27/11:00pm - - - - - SSE 24 28 13 15 - - -
27/10:30pm - - - - - SE 28 35 15 19 - - -
27/10:00pm - - - - - SSE 28 37 15 20 - - -
27/09:30pm - - - - - SSE 26 30 14 16 - - -
27/09:00pm - - - - - S 24 28 13 15 - - -
27/08:30pm - - - - - SSW 24 30 13 16 - - -
27/08:00pm - - - - - SSW 26 28 14 15 - - -
27/07:30pm - - - - - SW 26 30 14 16 - - -
27/07:00pm - - - - - SW 28 39 15 21 - - -
27/06:30pm - - - - - SW 33 37 18 20 - - -
27/06:00pm - - - - - SW 32 37 17 20 - - -
27/05:30pm - - - - - SW 30 35 16 19 - - -
27/05:00pm - - - - - WSW 30 33 16 18 - - -
27/04:30pm - - - - - W 28 30 15 16 - - -
27/04:00pm - - - - - WNW 26 30 14 16 - - -
27/03:30pm - - - - - WNW 30 32 16 17 - - -
27/03:00pm - - - - - NW 30 32 16 17 - - -
27/02:30pm - - - - - NW 26 28 14 15 - - -
27/02:00pm - - - - - NW 22 24 12 13 - - -
27/01:30pm - - - - - NNW 26 28 14 15 - - -
27/01:00pm - - - - - NNW 24 28 13 15 - - -
27/12:30pm - - - - - NNW 19 22 10 12 - - -
27/12:00pm - - - - - NW 13 17 7 9 - - -
27/11:30am - - - - - CALM 0 0 0 0 - - -
27/11:00am - - - - - NNE 4 7 2 4 - - -
27/10:30am - - - - - ENE 7 9 4 5 - - -
27/10:00am - - - - - ENE 7 7 4 4 - - -
27/09:30am - - - - - ENE 7 9 4 5 - - -
27/09:00am - - - - - E 9 11 5 6 - - -
27/08:30am - - - - - ESE 15 19 8 10 - - -
27/08:00am - - - - - SE 17 20 9 11 - - -
27/07:30am - - - - - SE 24 28 13 15 - - -
27/07:00am - - - - - SE 22 28 12 15 - - -
27/06:30am - - - - - SE 17 20 9 11 - - -
27/06:00am - - - - - SE 20 26 11 14 - - -
27/05:30am - - - - - SE 17 24 9 13 - - -
27/05:00am - - - - - SE 19 26 10 14 - - -
27/04:30am - - - - - SE 24 28 13 15 - - -
27/04:00am - - - - - ESE 26 30 14 16 - - -
27/03:30am - - - - - SE 20 30 11 16 - - -
27/03:00am - - - - - SE 26 33 14 18 - - -
27/02:30am - - - - - SE 26 33 14 18 - - -
27/02:00am - - - - - ESE 32 39 17 21 - - -
27/01:30am - - - - - SE 33 41 18 22 - - -
27/01:00am - - - - - SE 32 37 17 20 - - -
27/12:30am - - - - - SE 30 37 16 20 - - -
27/12:00am - - - - - SE 28 39 15 21 - - -
 
Date/Time
WST
Temp
°C
App
Temp
°C
Dew
Point
Rel
Hum
%
Delta-T
°C
Wind Press
QNH
hPa
Press
MSL
hPa
Rain
since 9 am
mm
Dir
 
Spd
km/h
Gust
km/h
Spd
kts
Gust
kts
26/11:30pm - - - - - SE 28 33 15 18 - - -
26/11:00pm - - - - - SE 22 28 12 15 - - -
26/10:30pm - - - - - SSE 20 26 11 14 - - -
26/10:00pm - - - - - S 19 26 10 14 - - -
26/09:30pm - - - - - S 19 22 10 12 - - -
26/09:00pm - - - - - SSW 19 22 10 12 - - -
26/08:30pm - - - - - SSW 20 26 11 14 - - -
26/08:00pm - - - - - SSW 26 30 14 16 - - -
26/07:30pm - - - - - SW 26 32 14 17 - - -
26/07:00pm - - - - - SW 26 30 14 16 - - -
26/06:30pm - - - - - SW 28 33 15 18 - - -
26/06:00pm - - - - - SW 30 33 16 18 - - -
26/05:30pm - - - - - W 19 22 10 12 - - -
26/05:00pm - - - - - NW 13 17 7 9 - - -
26/04:30pm - - - - - NW 19 19 10 10 - - -
26/04:00pm - - - - - NW 19 20 10 11 - - -
26/03:30pm - - - - - NNW 19 22 10 12 - - -
26/03:00pm - - - - - NNW 17 19 9 10 - - -
26/02:30pm - - - - - NNW 19 19 10 10 - - -
26/02:00pm - - - - - ENE 9 13 5 7 - - -
26/01:30pm - - - - - ENE 15 19 8 10 - - -
26/01:00pm - - - - - NE 9 13 5 7 - - -
26/12:30pm - - - - - ESE 15 24 8 13 - - -
26/12:00pm - - - - - ESE 15 20 8 11 - - -
26/11:30am - - - - - E 17 28 9 15 - - -
26/11:00am - - - - - ESE 20 28 11 15 - - -
26/10:30am - - - - - ESE 22 30 12 16 - - -
26/10:00am - - - - - SE 26 32 14 17 - - -
26/09:30am - - - - - SE 24 32 13 17 - - -
26/09:00am - - - - - SE 26 33 14 18 - - -
26/08:30am - - - - - SE 32 39 17 21 - - -
26/08:00am - - - - - SE 35 41 19 22 - - -
26/07:30am - - - - - SE 24 30 13 16 - - -
26/07:00am - - - - - SE 24 28 13 15 - - -
26/06:30am - - - - - SSE 20 24 11 13 - - -
26/06:00am - - - - - SSE 19 24 10 13 - - -
26/05:30am - - - - - SE 26 32 14 17 - - -
26/05:00am - - - - - SE 30 33 16 18 - - -
26/04:30am - - - - - SE 30 37 16 20 - - -

Other Formats:

Comma delimited format used in spreadsheet applications
http://www.bom.gov.au/fwo/IDW60801/IDW60801.95602.axf

JavaScript Object Notation format (JSON) in row-major order
http://www.bom.gov.au/fwo/IDW60801/IDW60801.95602.json